createdAt,value
2023-02-03T00:01:48.413Z,100.00
2023-02-03T00:04:15.989Z,100.00
2023-02-03T00:06:43.398Z,100.00
2023-02-03T00:09:09.834Z,100.00
2023-02-03T00:11:36.309Z,100.00
2023-02-03T00:14:05.236Z,100.00
2023-02-03T00:16:31.665Z,100.00
2023-02-03T00:18:58.097Z,100.00
2023-02-03T00:21:24.525Z,100.00
2023-02-03T00:23:50.960Z,100.00
2023-02-03T00:26:17.869Z,100.00
2023-02-03T00:28:45.460Z,100.00
2023-02-03T00:31:30.063Z,100.00
2023-02-03T00:33:57.499Z,100.00
2023-02-03T00:36:25.464Z,100.00
2023-02-03T00:38:52.238Z,100.00
2023-02-03T00:41:20.449Z,100.00
2023-02-03T00:43:47.880Z,100.00
2023-02-03T00:46:15.046Z,99.88
2023-02-03T00:48:41.454Z,100.00
2023-02-03T00:51:07.878Z,100.00
2023-02-03T00:53:34.288Z,100.00
2023-02-03T00:56:01.840Z,100.00
2023-02-03T00:58:28.194Z,100.00
2023-02-03T01:00:57.045Z,100.00
2023-02-03T01:03:23.632Z,100.00
2023-02-03T01:05:50.104Z,100.00
2023-02-03T01:08:16.708Z,99.92
2023-02-03T01:10:43.163Z,99.91
2023-02-03T01:13:09.727Z,99.82
2023-02-03T01:15:36.153Z,99.99
2023-02-03T01:18:02.661Z,100.00
2023-02-03T01:20:29.480Z,100.00
2023-02-03T01:22:55.910Z,99.87
2023-02-03T01:25:22.654Z,99.73
2023-02-03T01:27:49.065Z,99.70
2023-02-03T01:30:15.736Z,99.57
2023-02-03T01:32:42.179Z,99.34
2023-02-03T01:35:08.767Z,99.50
2023-02-03T01:37:35.159Z,99.18
2023-02-03T01:40:01.581Z,99.05
2023-02-03T01:42:32.072Z,99.16
2023-02-03T01:45:01.048Z,99.25
2023-02-03T01:47:36.834Z,99.17
2023-02-03T01:50:20.668Z,99.31
2023-02-03T01:52:57.176Z,99.09
2023-02-03T01:55:28.593Z,99.03
2023-02-03T01:58:06.588Z,98.84
2023-02-03T02:00:32.966Z,98.91
2023-02-03T02:03:01.850Z,99.01
2023-02-03T02:05:34.012Z,98.89
2023-02-03T02:08:03.293Z,98.52
2023-02-03T02:10:31.704Z,98.82
2023-02-03T02:13:00.262Z,98.54
2023-02-03T02:16:00.142Z,98.57
2023-02-03T02:18:44.788Z,98.75
2023-02-03T02:21:20.242Z,98.68
2023-02-03T02:24:14.484Z,98.28
2023-02-03T02:27:05.887Z,98.30
2023-02-03T02:30:05.214Z,98.34
2023-02-03T02:33:03.920Z,98.48
2023-02-03T02:35:58.045Z,98.45
2023-02-03T02:38:46.467Z,98.51
2023-02-03T02:41:39.023Z,98.33
2023-02-03T02:44:23.516Z,98.09
2023-02-03T02:46:54.437Z,98.28
2023-02-03T02:49:41.357Z,98.08
2023-02-03T02:52:08.704Z,97.47
2023-02-03T02:54:39.277Z,97.45
2023-02-03T02:57:09.394Z,97.59
2023-02-03T02:59:35.791Z,97.17
2023-02-03T03:02:02.182Z,96.77
2023-02-03T03:04:31.545Z,96.39
2023-02-03T03:07:01.162Z,96.30
2023-02-03T03:09:36.124Z,95.66
2023-02-03T03:12:13.155Z,95.56
2023-02-03T03:14:43.908Z,95.50
2023-02-03T03:17:14.017Z,94.99
2023-02-03T03:19:50.069Z,95.16
2023-02-03T03:22:18.897Z,94.60
2023-02-03T03:24:52.801Z,94.59
2023-02-03T03:27:31.727Z,93.53
2023-02-03T03:30:02.782Z,93.98
2023-02-03T03:32:32.913Z,93.77
2023-02-03T03:35:01.820Z,93.93
2023-02-03T03:37:52.790Z,93.44
2023-02-03T03:40:29.461Z,92.86
2023-02-03T03:43:19.953Z,92.81
2023-02-03T03:45:49.476Z,92.79
2023-02-03T03:48:30.088Z,93.00
2023-02-03T03:51:02.853Z,92.60
2023-02-03T03:53:32.329Z,92.60
2023-02-03T03:56:01.581Z,92.93
2023-02-03T03:58:30.836Z,92.62
2023-02-03T04:01:01.563Z,92.10
2023-02-03T04:03:33.011Z,92.31
2023-02-03T04:05:59.444Z,92.55
2023-02-03T04:08:25.921Z,92.80
2023-02-03T04:10:52.324Z,92.42
2023-02-03T04:13:20.652Z,92.40
2023-02-03T04:15:47.130Z,92.49
2023-02-03T04:18:15.330Z,92.35
2023-02-03T04:20:43.308Z,91.91
2023-02-03T04:23:13.240Z,91.42
2023-02-03T04:25:39.623Z,91.23
2023-02-03T04:28:07.780Z,90.95
2023-02-03T04:30:34.288Z,90.50
2023-02-03T04:33:00.714Z,90.93
2023-02-03T04:35:27.306Z,90.95
2023-02-03T04:37:54.555Z,90.96
2023-02-03T04:40:20.996Z,90.67
2023-02-03T04:42:47.431Z,90.91
2023-02-03T04:45:15.540Z,90.76
2023-02-03T04:47:41.972Z,91.03
2023-02-03T04:50:08.912Z,91.07
2023-02-03T04:52:35.396Z,91.30
2023-02-03T04:55:01.999Z,91.22
2023-02-03T04:57:28.452Z,91.05
2023-02-03T04:59:54.827Z,90.84
2023-02-03T05:02:21.208Z,91.21
2023-02-03T05:04:47.604Z,91.49
2023-02-03T05:07:14.043Z,91.21
2023-02-03T05:09:40.490Z,91.41
2023-02-03T05:12:07.082Z,91.55
2023-02-03T05:14:33.485Z,91.79
2023-02-03T05:16:59.895Z,91.69
2023-02-03T05:19:26.398Z,91.20
2023-02-03T05:21:52.901Z,91.35
2023-02-03T05:24:28.872Z,91.50
2023-02-03T05:26:55.323Z,91.30
2023-02-03T05:29:21.726Z,91.55
2023-02-03T05:31:48.234Z,91.70
2023-02-03T05:34:14.713Z,91.52
2023-02-03T05:36:41.722Z,91.03
2023-02-03T05:39:10.979Z,91.02
2023-02-03T05:41:52.562Z,90.67
2023-02-03T05:44:29.996Z,91.17
2023-02-03T05:46:58.460Z,91.39
2023-02-03T05:49:28.272Z,91.52
2023-02-03T05:51:55.745Z,91.54
2023-02-03T05:54:23.030Z,91.56
2023-02-03T05:56:50.053Z,91.68
2023-02-03T05:59:16.510Z,91.74
2023-02-03T06:01:43.046Z,91.22
2023-02-03T06:04:09.844Z,91.54
2023-02-03T06:06:36.771Z,91.52
2023-02-03T06:09:08.638Z,91.70
2023-02-03T06:11:35.920Z,91.66
2023-02-03T06:14:03.798Z,91.97
2023-02-03T06:16:30.609Z,91.72
2023-02-03T06:18:59.499Z,92.20
2023-02-03T06:21:26.543Z,91.83
2023-02-03T06:23:53.020Z,91.83
2023-02-03T06:26:19.513Z,91.34
2023-02-03T06:28:47.048Z,91.68
2023-02-03T06:31:13.590Z,91.81
2023-02-03T06:33:40.621Z,92.21
2023-02-03T06:36:07.279Z,91.53
2023-02-03T06:38:33.745Z,91.62
2023-02-03T06:41:00.143Z,91.76
2023-02-03T06:43:26.633Z,91.68
2023-02-03T06:45:53.049Z,91.95
2023-02-03T06:48:23.770Z,91.71
2023-02-03T06:50:50.713Z,91.92
2023-02-03T06:53:17.367Z,91.97
2023-02-03T06:55:43.726Z,92.20
2023-02-03T06:58:10.515Z,92.06
2023-02-03T07:00:36.893Z,92.03
2023-02-03T07:03:03.447Z,91.90
2023-02-03T07:05:30.391Z,91.96
2023-02-03T07:07:56.881Z,91.96
2023-02-03T07:10:23.342Z,92.16
2023-02-03T07:12:50.868Z,92.31
2023-02-03T07:15:17.887Z,92.49
2023-02-03T07:17:44.294Z,92.02
2023-02-03T07:20:11.254Z,92.08
2023-02-03T07:22:38.667Z,92.02
2023-02-03T07:25:05.393Z,92.26
2023-02-03T07:27:31.907Z,92.23
2023-02-03T07:29:58.373Z,92.34
2023-02-03T07:32:24.769Z,92.29
2023-02-03T07:34:51.119Z,92.07
2023-02-03T07:37:17.467Z,92.25
2023-02-03T07:39:44.159Z,92.04
2023-02-03T07:42:10.534Z,92.18
2023-02-03T07:44:36.872Z,92.91
2023-02-03T07:47:03.236Z,92.68
2023-02-03T07:49:29.579Z,92.90
2023-02-03T07:51:56.515Z,93.13
2023-02-03T07:54:22.905Z,93.09
2023-02-03T07:56:49.247Z,93.26
2023-02-03T07:59:17.268Z,93.32
2023-02-03T08:01:43.668Z,93.17
2023-02-03T08:04:12.075Z,93.24
2023-02-03T08:06:38.414Z,93.15
2023-02-03T08:09:04.801Z,93.11
2023-02-03T08:11:32.480Z,93.01
2023-02-03T08:13:58.848Z,93.23
2023-02-03T08:16:25.478Z,93.20
2023-02-03T08:18:52.086Z,93.10
2023-02-03T08:21:18.481Z,93.07
2023-02-03T08:23:44.877Z,93.04
2023-02-03T08:26:11.305Z,92.83
2023-02-03T08:28:37.893Z,93.05
2023-02-03T08:31:10.698Z,92.99
2023-02-03T08:33:37.211Z,93.00
2023-02-03T08:36:05.673Z,92.96
2023-02-03T08:38:32.593Z,92.94
2023-02-03T08:40:59.243Z,92.97
2023-02-03T08:43:25.772Z,92.78
2023-02-03T08:45:52.240Z,92.92
2023-02-03T08:48:18.723Z,92.64
2023-02-03T08:50:51.894Z,92.68
2023-02-03T08:53:18.616Z,92.77
2023-02-03T08:55:45.018Z,92.66
2023-02-03T08:58:11.433Z,92.27
2023-02-03T09:00:38.105Z,92.67
2023-02-03T09:03:04.697Z,92.39
2023-02-03T09:05:32.435Z,92.41
2023-02-03T09:07:58.956Z,92.43
2023-02-03T09:10:25.652Z,92.31
2023-02-03T09:12:52.245Z,92.42
2023-02-03T09:15:18.691Z,92.24
2023-02-03T09:17:45.171Z,92.40
2023-02-03T09:20:15.021Z,92.18
2023-02-03T09:22:41.565Z,91.95
2023-02-03T09:25:08.300Z,91.97
2023-02-03T09:27:34.773Z,91.70
2023-02-03T09:30:01.332Z,92.04
2023-02-03T09:32:27.723Z,92.09
2023-02-03T09:34:54.141Z,91.81
2023-02-03T09:37:20.569Z,91.61
2023-02-03T09:39:48.750Z,91.63
2023-02-03T09:42:28.420Z,91.68
2023-02-03T09:45:06.246Z,91.70
2023-02-03T09:47:36.306Z,91.42
2023-02-03T09:50:11.802Z,91.56
2023-02-03T09:52:40.607Z,91.64
2023-02-03T09:55:42.735Z,91.46
2023-02-03T09:58:12.923Z,91.24
2023-02-03T10:00:51.577Z,91.22
2023-02-03T10:03:33.161Z,91.24
2023-02-03T10:06:11.714Z,91.17
2023-02-03T10:09:09.564Z,91.23
2023-02-03T10:11:54.249Z,91.41
2023-02-03T10:14:38.050Z,91.32
2023-02-03T10:17:16.595Z,91.16
2023-02-03T10:19:58.532Z,91.07
2023-02-03T10:22:29.158Z,91.05
2023-02-03T10:25:15.924Z,91.03
2023-02-03T10:27:43.962Z,90.84
2023-02-03T10:30:19.691Z,90.74
2023-02-03T10:32:49.116Z,90.64
2023-02-03T10:35:15.538Z,90.54
2023-02-03T10:37:47.400Z,90.46
2023-02-03T10:40:16.437Z,90.38
2023-02-03T10:43:03.633Z,90.73
2023-02-03T10:45:33.627Z,90.23
2023-02-03T10:48:00.547Z,90.55
2023-02-03T10:50:31.846Z,90.08
2023-02-03T10:53:20.506Z,90.14
2023-02-03T10:55:51.062Z,90.18
2023-02-03T10:58:25.498Z,89.89
2023-02-03T11:00:58.621Z,89.82
2023-02-03T11:03:31.569Z,89.64
2023-02-03T11:06:12.703Z,89.63
2023-02-03T11:08:42.847Z,90.07
2023-02-03T11:11:16.320Z,89.49
2023-02-03T11:13:42.763Z,89.70
2023-02-03T11:16:24.382Z,90.15
2023-02-03T11:19:01.342Z,90.27
2023-02-03T11:21:40.213Z,90.14
2023-02-03T11:24:23.488Z,89.88
2023-02-03T11:27:03.067Z,90.28
2023-02-03T11:29:32.280Z,89.81
2023-02-03T11:32:01.636Z,89.85
2023-02-03T11:34:38.451Z,89.91
2023-02-03T11:37:29.819Z,89.81
2023-02-03T11:40:12.323Z,89.67
2023-02-03T11:42:41.585Z,89.90
2023-02-03T11:45:22.572Z,89.71
2023-02-03T11:47:55.712Z,89.68
2023-02-03T11:50:27.874Z,90.03
2023-02-03T11:53:01.692Z,89.96
2023-02-03T11:55:36.582Z,89.77
2023-02-03T11:58:03.398Z,89.78
2023-02-03T12:01:04.350Z,90.52
2023-02-03T12:04:03.153Z,91.20
2023-02-03T12:06:35.578Z,91.23
2023-02-03T12:09:28.287Z,91.18
2023-02-03T12:12:09.941Z,92.50
2023-02-03T12:14:53.632Z,93.64
2023-02-03T12:17:45.594Z,94.52
2023-02-03T12:20:54.805Z,95.31
2023-02-03T12:23:33.357Z,95.01
2023-02-03T12:26:11.543Z,95.70
2023-02-03T12:28:43.894Z,96.02
2023-02-03T12:31:33.126Z,96.57
2023-02-03T12:34:14.057Z,97.53
2023-02-03T12:36:45.378Z,97.95
2023-02-03T12:39:20.531Z,98.56
2023-02-03T12:42:12.260Z,98.69
2023-02-03T12:44:50.731Z,98.83
2023-02-03T12:47:43.208Z,99.09
2023-02-03T12:50:18.707Z,99.48
2023-02-03T12:52:56.072Z,99.47
2023-02-03T12:55:29.306Z,99.59
2023-02-03T12:58:01.492Z,99.74
2023-02-03T13:00:38.024Z,99.74
2023-02-03T13:03:15.009Z,99.54
2023-02-03T13:05:48.138Z,99.37
2023-02-03T13:08:20.425Z,99.05
2023-02-03T13:10:52.911Z,98.82
2023-02-03T13:13:32.903Z,98.39
2023-02-03T13:16:01.768Z,97.73
2023-02-03T13:18:33.877Z,97.01
2023-02-03T13:21:00.703Z,96.45
2023-02-03T13:23:27.723Z,95.92
2023-02-03T13:25:57.015Z,94.81
2023-02-03T13:28:42.156Z,93.94
2023-02-03T13:31:17.713Z,93.90
2023-02-03T13:34:00.233Z,93.32
2023-02-03T13:36:35.759Z,92.90
2023-02-03T13:39:29.542Z,92.85
2023-02-03T13:42:11.373Z,91.84
2023-02-03T13:44:39.095Z,90.89
2023-02-03T13:47:06.500Z,89.81
2023-02-03T13:49:35.117Z,89.81
2023-02-03T13:52:01.872Z,89.68
2023-02-03T13:54:43.980Z,89.79
2023-02-03T13:57:21.975Z,90.04
2023-02-03T13:59:49.706Z,90.27
2023-02-03T14:02:19.210Z,89.01
2023-02-03T14:04:45.625Z,89.45
2023-02-03T14:07:31.399Z,88.90
2023-02-03T14:10:13.070Z,88.32
2023-02-03T14:12:57.236Z,88.35
2023-02-03T14:15:32.200Z,88.75
2023-02-03T14:18:19.206Z,88.43
2023-02-03T14:20:48.880Z,88.42
2023-02-03T14:23:40.355Z,88.19
2023-02-03T14:26:17.354Z,88.27
2023-02-03T14:28:46.438Z,88.02
2023-02-03T14:31:23.803Z,87.84
2023-02-03T14:34:01.569Z,87.92
2023-02-03T14:36:52.969Z,87.93
2023-02-03T14:39:22.576Z,87.90
2023-02-03T14:42:04.539Z,87.50
2023-02-03T14:44:40.301Z,87.51
2023-02-03T14:47:30.149Z,87.75
2023-02-03T14:50:08.660Z,88.11
2023-02-03T14:53:02.156Z,87.93
2023-02-03T14:55:36.387Z,87.08
2023-02-03T14:58:07.536Z,86.68
2023-02-03T15:00:35.498Z,87.12
2023-02-03T15:03:09.188Z,86.76
2023-02-03T15:05:40.671Z,86.74
2023-02-03T15:08:33.197Z,86.15
2023-02-03T15:11:00.747Z,85.99
2023-02-03T15:13:31.492Z,85.90
2023-02-03T15:16:04.168Z,85.11
2023-02-03T15:18:40.747Z,85.44
2023-02-03T15:21:16.673Z,85.60
2023-02-03T15:23:47.965Z,84.50
2023-02-03T15:26:44.397Z,85.14
2023-02-03T15:29:21.951Z,84.63
2023-02-03T15:31:53.363Z,84.73
2023-02-03T15:34:35.474Z,84.58
2023-02-03T15:37:18.258Z,84.36
2023-02-03T15:40:01.777Z,84.01
2023-02-03T15:42:31.137Z,83.89
2023-02-03T15:45:22.395Z,83.85
2023-02-03T15:48:00.604Z,83.77
2023-02-03T15:50:31.657Z,83.68
2023-02-03T15:53:07.658Z,83.50
2023-02-03T15:55:41.816Z,83.64
2023-02-03T15:58:20.358Z,83.36
2023-02-03T16:00:53.747Z,83.33
2023-02-03T16:03:39.220Z,83.58
2023-02-03T16:06:35.434Z,84.26
2023-02-03T16:09:02.677Z,85.31
2023-02-03T16:11:35.745Z,86.14
2023-02-03T16:14:04.960Z,86.59
2023-02-03T16:16:39.967Z,87.05
2023-02-03T16:19:13.928Z,87.52
2023-02-03T16:21:52.331Z,87.70
2023-02-03T16:24:40.999Z,87.75
2023-02-03T16:27:25.888Z,87.88
2023-02-03T16:30:11.513Z,87.99
2023-02-03T16:32:56.819Z,88.14
2023-02-03T16:35:42.505Z,87.90
2023-02-03T16:38:35.764Z,87.84
2023-02-03T16:41:22.527Z,87.83
2023-02-03T16:44:07.309Z,87.66
2023-02-03T16:46:52.348Z,87.92
2023-02-03T16:49:37.255Z,87.93
2023-02-03T16:52:05.925Z,88.11
2023-02-03T16:54:32.367Z,88.27
2023-02-03T16:56:58.927Z,88.09
2023-02-03T16:59:25.404Z,88.47
2023-02-03T17:01:52.124Z,88.51
2023-02-03T17:04:18.529Z,88.13
2023-02-03T17:06:44.968Z,88.59
2023-02-03T17:09:11.423Z,88.70
2023-02-03T17:11:37.827Z,88.61
2023-02-03T17:14:04.466Z,88.73
2023-02-03T17:16:31.219Z,88.68
2023-02-03T17:18:57.643Z,88.57
2023-02-03T17:21:27.152Z,88.40
2023-02-03T17:23:54.057Z,88.40
2023-02-03T17:26:21.098Z,88.21
2023-02-03T17:28:49.751Z,88.17
2023-02-03T17:31:19.335Z,87.80
2023-02-03T17:33:50.251Z,88.00
2023-02-03T17:36:19.491Z,88.07
2023-02-03T17:55:42.462Z,87.27
2023-02-03T17:58:08.968Z,87.32
2023-02-03T18:00:35.396Z,87.58
2023-02-03T18:03:01.857Z,87.40
2023-02-03T18:05:29.486Z,87.43
2023-02-03T18:07:56.227Z,87.05
2023-02-03T18:10:22.624Z,86.57
2023-02-03T18:12:49.379Z,86.57
2023-02-03T18:15:15.906Z,86.70
2023-02-03T18:17:42.325Z,86.95
2023-02-03T18:20:09.173Z,86.88
2023-02-03T18:22:35.605Z,86.87
2023-02-03T18:25:01.977Z,86.86
2023-02-03T18:27:28.381Z,86.40
2023-02-03T18:29:54.776Z,86.19
2023-02-03T18:32:21.208Z,86.03
2023-02-03T18:34:47.626Z,85.65
2023-02-03T18:37:13.995Z,85.60
2023-02-03T18:39:40.416Z,85.47
2023-02-03T18:42:07.312Z,85.84
2023-02-03T18:44:33.838Z,85.65
2023-02-03T18:47:06.958Z,85.66
2023-02-03T18:49:35.605Z,85.68
2023-02-03T18:52:02.227Z,85.11
2023-02-03T18:54:29.670Z,85.01
2023-02-03T18:56:58.831Z,84.78
2023-02-03T18:59:25.807Z,84.83
2023-02-03T19:01:52.990Z,84.79
2023-02-03T19:04:19.787Z,84.76
2023-02-03T19:06:46.807Z,84.85
2023-02-03T19:09:16.081Z,84.92
2023-02-03T19:11:43.126Z,84.62
2023-02-03T19:14:09.615Z,84.85
2023-02-03T19:16:36.043Z,85.07
2023-02-03T19:19:02.612Z,85.10
2023-02-03T19:21:29.077Z,85.10
2023-02-03T19:23:55.820Z,85.29
2023-02-03T19:26:22.209Z,85.67
2023-02-03T19:28:48.786Z,85.90
2023-02-03T19:31:15.742Z,86.51
2023-02-03T19:33:42.630Z,86.49
2023-02-03T19:36:10.720Z,86.64
2023-02-03T19:38:37.297Z,86.78
2023-02-03T19:41:03.881Z,86.76
2023-02-03T19:43:31.481Z,86.86
2023-02-03T19:45:58.486Z,87.10
2023-02-03T19:48:25.070Z,87.10
2023-02-03T19:50:51.504Z,87.07
2023-02-03T19:53:18.349Z,87.10
2023-02-03T19:55:45.848Z,87.09
2023-02-03T19:58:13.362Z,87.00
2023-02-03T20:00:40.703Z,87.02
2023-02-03T20:03:07.171Z,86.97
2023-02-03T20:05:34.452Z,86.98
2023-02-03T20:08:01.008Z,86.99
2023-02-03T20:10:27.861Z,87.33
2023-02-03T20:12:55.132Z,86.77
2023-02-03T20:15:21.780Z,86.97
2023-02-03T20:17:48.448Z,86.86
2023-02-03T20:20:16.413Z,86.91
2023-02-03T20:22:42.780Z,86.78
2023-02-03T20:25:09.421Z,86.84
2023-02-03T20:27:35.880Z,86.90
2023-02-03T20:30:04.028Z,86.96
2023-02-03T20:32:30.522Z,87.13
2023-02-03T20:34:57.637Z,87.15
2023-02-03T20:37:24.085Z,86.90
2023-02-03T20:39:50.556Z,86.66
2023-02-03T20:42:17.742Z,86.36
2023-02-03T20:44:44.857Z,84.51
2023-02-03T20:47:19.036Z,83.51
2023-02-03T20:49:47.716Z,83.58
2023-02-03T20:52:16.670Z,83.56
2023-02-03T20:54:43.661Z,83.65
2023-02-03T20:57:13.508Z,83.03
2023-02-03T20:59:40.053Z,83.19
2023-02-03T21:02:18.564Z,83.09
2023-02-03T21:05:00.597Z,82.53
2023-02-03T21:07:30.000Z,82.71
2023-02-03T21:10:00.157Z,82.89
2023-02-03T21:12:29.834Z,82.89
2023-02-03T21:14:57.060Z,82.63
2023-02-03T21:17:25.699Z,82.51
2023-02-03T21:19:53.640Z,82.71
2023-02-03T21:22:23.852Z,82.55
2023-02-03T21:24:56.982Z,82.21
2023-02-03T21:27:25.585Z,82.21
2023-02-03T21:29:55.816Z,82.19
2023-02-03T21:32:23.599Z,81.86
2023-02-03T21:34:50.350Z,82.21
2023-02-03T21:37:41.484Z,81.70
2023-02-03T21:40:32.299Z,81.94
2023-02-03T21:43:00.181Z,81.33
2023-02-03T21:45:34.233Z,81.27
2023-02-03T21:48:02.001Z,81.47
2023-02-03T21:50:33.975Z,81.38
2023-02-03T21:53:10.095Z,81.20
2023-02-03T21:55:37.954Z,81.22
2023-02-03T21:58:23.695Z,81.31
2023-02-03T22:00:54.447Z,81.04
2023-02-03T22:03:28.281Z,80.88
2023-02-03T22:06:23.745Z,81.13
2023-02-03T22:08:55.613Z,81.35
2023-02-03T22:11:25.390Z,81.39
2023-02-03T22:13:52.133Z,81.49
2023-02-03T22:16:19.953Z,81.72
2023-02-03T22:18:48.446Z,81.98
2023-02-03T22:21:15.436Z,82.29
2023-02-03T22:23:42.725Z,82.49
2023-02-03T22:26:10.918Z,82.42
2023-02-03T22:28:37.545Z,82.21
2023-02-03T22:31:05.149Z,82.16
2023-02-03T22:33:32.161Z,82.30
2023-02-03T22:35:58.641Z,82.18
2023-02-03T22:38:25.495Z,82.02
2023-02-03T22:40:52.814Z,81.89
2023-02-03T22:43:19.378Z,82.02
2023-02-03T22:45:45.826Z,82.24
2023-02-03T22:48:12.285Z,82.26
2023-02-03T22:50:39.036Z,82.45
2023-02-03T22:53:06.002Z,82.55
2023-02-03T22:55:32.796Z,82.44
2023-02-03T22:57:59.356Z,82.58
2023-02-03T23:00:26.607Z,82.54
2023-02-03T23:02:53.621Z,82.66
2023-02-03T23:05:20.639Z,82.69
2023-02-03T23:07:47.849Z,82.64
2023-02-03T23:10:17.584Z,82.68
2023-02-03T23:12:44.305Z,82.79
2023-02-03T23:15:11.342Z,82.83
2023-02-03T23:17:37.940Z,83.34
2023-02-03T23:20:06.116Z,83.05
2023-02-03T23:22:32.539Z,82.80
2023-02-03T23:25:00.224Z,82.65
2023-02-03T23:27:27.248Z,82.68
2023-02-03T23:29:53.769Z,82.63
2023-02-03T23:32:20.219Z,83.05
2023-02-03T23:35:05.185Z,82.91
2023-02-03T23:37:31.912Z,82.88
2023-02-03T23:39:58.384Z,82.94
2023-02-03T23:42:24.790Z,82.80
2023-02-03T23:44:51.381Z,82.65
2023-02-03T23:47:17.995Z,82.64
2023-02-03T23:49:44.388Z,82.99
2023-02-03T23:52:10.836Z,82.94
2023-02-03T23:54:37.200Z,83.12
2023-02-03T23:57:04.825Z,83.12
2023-02-03T23:59:31.738Z,82.80
